Terminal Aerodrome Forecast
Issued by NWS

Home | Current Version | Previous Version | Graphics & Text | Print | Product List | Glossary On
Versions: 1 2 3 4 5 6 7 8 9 10 11 12 13 14 15
391
FTUS43 KGRB 300520
TAFATW
TAF
KATW 300520Z 3006/0106 05007KT P6SM FEW050
     FM300900 05008KT P6SM SCT040 SCT200
     FM301500 06010G16KT P6SM SCT040 BKN150
     FM302100 07012G20KT P6SM VCSH SCT020 BKN035=

USA.gov is the U.S. government's official web portal to all federal, state and local government web resources and services.